createdAt,value
2019-05-22T00:01:56.806Z,11.57
2019-05-22T00:04:28.415Z,10.50
2019-05-22T00:07:01.520Z,11.03
2019-05-22T00:09:36.307Z,12.33
2019-05-22T00:12:09.026Z,11.93
2019-05-22T00:14:40.474Z,10.80
2019-05-22T00:17:15.337Z,11.57
2019-05-22T00:19:45.934Z,11.20
2019-05-22T00:22:27.426Z,11.37
2019-05-22T00:24:58.480Z,10.80
2019-05-22T00:27:30.462Z,9.60
2019-05-22T00:30:02.112Z,12.23
2019-05-22T00:32:31.130Z,12.23
2019-05-22T00:35:01.222Z,13.23
2019-05-22T00:37:31.011Z,11.00
2019-05-22T00:40:00.587Z,11.50
2019-05-22T00:42:31.962Z,12.07
2019-05-22T00:45:02.454Z,12.33
2019-05-22T00:47:33.906Z,12.43
2019-05-22T00:50:08.371Z,11.20
2019-05-22T00:52:46.335Z,11.30
2019-05-22T00:55:33.391Z,10.90
2019-05-22T00:58:13.651Z,11.97
2019-05-22T01:00:45.185Z,13.10
2019-05-22T01:03:18.718Z,9.90
2019-05-22T01:05:49.100Z,11.50
2019-05-22T01:08:18.638Z,11.57
2019-05-22T01:10:50.766Z,13.67
2019-05-22T01:13:21.466Z,12.57
2019-05-22T01:15:52.030Z,12.00
2019-05-22T01:18:25.429Z,11.53
2019-05-22T01:20:58.494Z,10.83
2019-05-22T01:23:30.786Z,10.73
2019-05-22T01:26:01.554Z,12.93
2019-05-22T01:28:32.618Z,11.83
2019-05-22T01:31:08.753Z,10.80
2019-05-22T01:34:13.188Z,11.93
2019-05-22T01:36:45.499Z,13.27
2019-05-22T01:39:36.494Z,11.37
2019-05-22T01:42:08.401Z,11.77
2019-05-22T01:44:37.990Z,10.87
2019-05-22T01:47:13.323Z,11.40
2019-05-22T01:49:51.754Z,11.93
2019-05-22T01:52:21.242Z,10.93
2019-05-22T01:54:52.312Z,11.00
2019-05-22T01:57:23.577Z,10.97
2019-05-22T01:59:53.970Z,10.60
2019-05-22T02:02:26.124Z,10.40
2019-05-22T02:04:58.461Z,11.87
2019-05-22T02:07:28.991Z,10.77
2019-05-22T02:09:59.490Z,9.70
2019-05-22T02:12:41.112Z,8.83
2019-05-22T02:15:11.117Z,10.07
2019-05-22T02:17:41.739Z,8.73
2019-05-22T02:20:11.130Z,8.77
2019-05-22T02:22:40.575Z,8.63
2019-05-22T02:25:09.855Z,8.70
2019-05-22T02:27:40.556Z,8.20
2019-05-22T02:30:10.838Z,7.47
2019-05-22T02:32:41.028Z,7.57
2019-05-22T02:35:11.118Z,6.50
2019-05-22T02:37:41.703Z,7.13
2019-05-22T02:40:17.483Z,7.07
2019-05-22T02:42:47.399Z,7.67
2019-05-22T02:45:17.427Z,7.10
2019-05-22T02:47:46.603Z,6.77
2019-05-22T02:50:16.098Z,6.73
2019-05-22T02:52:45.171Z,6.93
2019-05-22T02:55:14.343Z,6.60
2019-05-22T02:57:43.851Z,7.43
2019-05-22T03:00:14.419Z,6.70
2019-05-22T03:02:53.310Z,7.20
2019-05-22T03:05:24.795Z,6.63
2019-05-22T03:07:54.619Z,6.40
2019-05-22T03:10:26.616Z,6.77
2019-05-22T03:12:56.734Z,6.60
2019-05-22T03:15:27.703Z,6.80
2019-05-22T03:18:01.602Z,6.97
2019-05-22T03:20:33.952Z,7.07
2019-05-22T03:23:34.803Z,7.27
2019-05-22T03:26:05.659Z,6.60
2019-05-22T03:28:35.566Z,7.17
2019-05-22T03:31:06.473Z,7.33
2019-05-22T03:33:35.555Z,8.03
2019-05-22T03:36:09.580Z,8.90
2019-05-22T03:38:40.845Z,8.60
2019-05-22T03:41:11.978Z,8.43
2019-05-22T03:43:44.983Z,9.73
2019-05-22T03:46:38.756Z,8.50
2019-05-22T03:49:28.053Z,9.43
2019-05-22T03:51:42.650Z,9.13
2019-05-22T03:54:12.744Z,10.03
2019-05-22T03:56:42.640Z,9.50
2019-05-22T03:59:12.794Z,10.10
2019-05-22T04:01:43.555Z,10.23
2019-05-22T04:04:16.226Z,10.93
2019-05-22T04:06:45.363Z,9.73
2019-05-22T04:09:20.219Z,8.50
2019-05-22T04:11:50.438Z,9.20
2019-05-22T04:14:21.528Z,10.10
2019-05-22T04:16:51.694Z,9.97
2019-05-22T04:19:21.328Z,9.23
2019-05-22T04:21:50.421Z,9.07
2019-05-22T04:24:20.486Z,9.30
2019-05-22T04:26:50.270Z,11.87
2019-05-22T04:29:19.330Z,9.83
2019-05-22T04:32:09.180Z,10.10
2019-05-22T04:34:38.209Z,10.20
2019-05-22T04:37:09.080Z,10.03
2019-05-22T04:39:41.429Z,10.73
2019-05-22T04:42:11.821Z,10.93
2019-05-22T04:44:59.012Z,10.97
2019-05-22T04:47:28.075Z,11.80
2019-05-22T04:50:07.678Z,11.83
2019-05-22T04:52:28.706Z,13.43
2019-05-22T04:54:58.979Z,13.10
2019-05-22T04:57:28.214Z,13.07
2019-05-22T04:59:57.166Z,13.03
2019-05-22T05:02:26.751Z,14.13
2019-05-22T05:04:55.776Z,13.63
2019-05-22T05:07:25.775Z,14.43
2019-05-22T05:09:54.889Z,13.87
2019-05-22T05:12:24.384Z,14.93
2019-05-22T05:14:53.691Z,14.00
2019-05-22T05:17:23.290Z,14.10
2019-05-22T05:19:52.305Z,14.73
2019-05-22T05:22:29.094Z,15.53
2019-05-22T05:24:57.978Z,14.13
2019-05-22T05:27:28.003Z,15.40
2019-05-22T05:29:56.938Z,13.70
2019-05-22T05:32:26.634Z,13.10
2019-05-22T05:35:00.718Z,12.97
2019-05-22T05:37:29.914Z,13.97
2019-05-22T05:40:29.569Z,14.00
2019-05-22T05:42:59.774Z,13.87
2019-05-22T05:45:30.476Z,12.90
2019-05-22T05:48:00.077Z,13.30
2019-05-22T05:50:38.961Z,13.10
2019-05-22T05:53:01.882Z,13.20
2019-05-22T05:55:44.044Z,13.00
2019-05-22T05:58:32.770Z,13.10
2019-05-22T06:01:17.168Z,14.23
2019-05-22T06:03:46.384Z,13.20
2019-05-22T06:07:02.937Z,15.73
2019-05-22T06:09:32.423Z,14.93
2019-05-22T06:12:05.754Z,15.73
2019-05-22T06:14:36.282Z,12.97
2019-05-22T06:18:00.919Z,15.77
2019-05-22T06:20:31.188Z,13.90
2019-05-22T06:23:52.150Z,13.13
2019-05-22T06:26:31.502Z,13.47
2019-05-22T06:29:00.454Z,13.80
2019-05-22T06:31:41.791Z,14.83
2019-05-22T06:34:11.220Z,14.60
2019-05-22T06:36:42.070Z,15.30
2019-05-22T06:39:13.753Z,13.27
2019-05-22T06:41:43.975Z,14.03
2019-05-22T06:44:40.739Z,13.83
2019-05-22T06:47:13.095Z,14.90
2019-05-22T06:49:47.605Z,13.17
2019-05-22T06:52:16.899Z,14.80
2019-05-22T06:54:46.212Z,16.03
2019-05-22T06:57:28.450Z,16.27
2019-05-22T07:00:21.579Z,16.63
2019-05-22T07:02:51.321Z,16.37
2019-05-22T07:05:20.626Z,18.03
2019-05-22T07:07:49.923Z,17.13
2019-05-22T07:10:20.601Z,16.63
2019-05-22T07:12:50.698Z,17.43
2019-05-22T07:15:43.878Z,17.97
2019-05-22T07:18:14.568Z,17.47
2019-05-22T07:20:45.700Z,17.03
2019-05-22T07:23:20.485Z,17.43
2019-05-22T07:25:50.008Z,17.37
2019-05-22T07:28:20.226Z,17.80
2019-05-22T07:30:50.958Z,19.33
2019-05-22T07:33:20.807Z,19.07
2019-05-22T07:36:08.386Z,17.97
2019-05-22T07:38:21.133Z,16.87
2019-05-22T07:40:51.874Z,17.37
2019-05-22T07:43:22.283Z,15.63
2019-05-22T07:45:52.696Z,16.20
2019-05-22T07:48:25.652Z,16.13
2019-05-22T07:50:55.298Z,15.13
2019-05-22T07:53:26.423Z,15.37
2019-05-22T07:55:57.652Z,15.17
2019-05-22T07:58:29.522Z,15.00
2019-05-22T08:01:00.527Z,15.23
2019-05-22T08:03:31.809Z,15.30
2019-05-22T08:06:01.390Z,15.13
2019-05-22T08:08:32.978Z,13.73
2019-05-22T08:11:02.012Z,14.43
2019-05-22T08:13:32.197Z,14.93
2019-05-22T08:16:02.254Z,15.90
2019-05-22T08:18:33.747Z,15.03
2019-05-22T08:21:02.972Z,14.30
2019-05-22T08:23:32.541Z,16.00
2019-05-22T08:26:01.574Z,15.40
2019-05-22T08:28:32.943Z,16.17
2019-05-22T08:31:03.395Z,16.27
2019-05-22T08:33:35.029Z,16.23
2019-05-22T08:36:04.742Z,14.80
2019-05-22T08:38:34.755Z,15.17
2019-05-22T08:41:06.862Z,16.03
2019-05-22T08:44:03.277Z,14.90
2019-05-22T08:46:08.691Z,14.57
2019-05-22T08:48:46.943Z,15.47
2019-05-22T08:51:12.365Z,16.00
2019-05-22T08:53:47.533Z,13.43
2019-05-22T08:56:12.988Z,14.40
2019-05-22T08:58:44.273Z,14.23
2019-05-22T09:01:14.405Z,14.87
2019-05-22T09:03:43.840Z,15.43
2019-05-22T09:06:13.172Z,15.60
2019-05-22T09:09:01.360Z,14.30
2019-05-22T09:11:30.350Z,15.00
2019-05-22T09:13:59.450Z,15.37
2019-05-22T09:16:29.147Z,14.57
2019-05-22T09:18:58.906Z,16.07
2019-05-22T09:21:28.075Z,15.83
2019-05-22T09:23:57.106Z,15.87
2019-05-22T09:26:26.818Z,17.03
2019-05-22T09:28:55.840Z,16.87
2019-05-22T09:31:24.844Z,17.50
2019-05-22T09:33:54.666Z,17.07
2019-05-22T09:36:23.603Z,16.03
2019-05-22T09:38:52.945Z,17.03
2019-05-22T09:41:21.917Z,15.43
2019-05-22T09:43:51.170Z,17.20
2019-05-22T09:46:20.503Z,17.57
2019-05-22T09:48:49.610Z,16.63
2019-05-22T09:51:19.540Z,16.40
2019-05-22T09:53:48.886Z,16.50
2019-05-22T09:56:18.126Z,15.37
2019-05-22T09:58:47.138Z,14.30
2019-05-22T10:01:16.622Z,15.87
2019-05-22T10:03:45.704Z,17.27
2019-05-22T10:06:15.111Z,16.23
2019-05-22T10:08:44.210Z,15.87
2019-05-22T10:11:13.255Z,15.10
2019-05-22T10:13:42.260Z,15.00
2019-05-22T10:16:11.680Z,15.20
2019-05-22T10:18:41.402Z,17.10
2019-05-22T10:21:11.098Z,15.65
2019-05-22T10:23:41.035Z,15.40
2019-05-22T10:26:11.002Z,13.33
2019-05-22T10:28:40.895Z,14.33
2019-05-22T10:31:11.326Z,13.43
2019-05-22T10:33:41.611Z,12.37
2019-05-22T10:36:10.856Z,13.03
2019-05-22T10:38:39.869Z,12.67
2019-05-22T10:41:09.830Z,12.63
2019-05-22T10:43:39.624Z,15.43
2019-05-22T10:46:09.463Z,13.43
2019-05-22T10:48:40.570Z,12.57
2019-05-22T10:51:09.994Z,13.43
2019-05-22T10:53:39.757Z,13.13
2019-05-22T10:56:08.909Z,13.93
2019-05-22T10:58:38.935Z,14.23
2019-05-22T11:01:09.836Z,12.93
2019-05-22T11:03:39.028Z,13.40
2019-05-22T11:06:08.637Z,11.60
2019-05-22T11:08:38.215Z,13.13
2019-05-22T11:11:08.120Z,13.93
2019-05-22T11:13:37.908Z,14.03
2019-05-22T11:16:08.184Z,15.60
2019-05-22T11:18:37.206Z,16.17
2019-05-22T11:21:06.800Z,17.80
2019-05-22T11:23:50.327Z,16.77
2019-05-22T11:26:06.966Z,17.30
2019-05-22T11:28:35.983Z,17.93
2019-05-22T11:31:05.979Z,16.57
2019-05-22T11:33:35.651Z,17.23
2019-05-22T11:36:05.459Z,16.63
2019-05-22T11:38:34.545Z,18.10
2019-05-22T11:41:04.646Z,17.73
2019-05-22T11:43:34.740Z,15.50
2019-05-22T11:46:04.842Z,15.43
2019-05-22T11:48:34.450Z,16.23
2019-05-22T11:51:04.427Z,16.73
2019-05-22T11:53:33.437Z,16.57
2019-05-22T11:56:02.692Z,17.50
2019-05-22T11:58:32.428Z,17.03
2019-05-22T12:01:01.932Z,16.87
2019-05-22T12:03:33.026Z,16.23
2019-05-22T12:06:03.020Z,15.87
2019-05-22T12:08:33.153Z,16.70
2019-05-22T12:11:03.162Z,16.10
2019-05-22T12:13:32.685Z,16.10
2019-05-22T12:16:04.168Z,16.37
2019-05-22T12:18:33.623Z,16.03
2019-05-22T12:21:03.426Z,16.37
2019-05-22T12:23:33.896Z,15.27
2019-05-22T12:26:02.822Z,16.07
2019-05-22T12:28:31.842Z,17.00
2019-05-22T12:31:00.851Z,17.33
2019-05-22T12:33:30.620Z,16.37
2019-05-22T12:36:00.175Z,16.53
2019-05-22T12:38:31.066Z,17.13
2019-05-22T12:41:00.311Z,16.83
2019-05-22T12:43:31.078Z,17.87
2019-05-22T12:46:00.132Z,18.50
2019-05-22T12:48:29.763Z,16.70
2019-05-22T12:50:59.356Z,16.23
2019-05-22T12:53:29.346Z,15.93
2019-05-22T12:55:59.677Z,17.87
2019-05-22T12:58:29.098Z,15.63
2019-05-22T13:00:59.725Z,12.70
2019-05-22T13:03:29.918Z,15.43
2019-05-22T13:05:59.467Z,15.87
2019-05-22T13:08:29.348Z,14.73
2019-05-22T13:10:59.479Z,14.73
2019-05-22T13:13:28.975Z,15.30
2019-05-22T13:16:00.406Z,15.17
2019-05-22T13:18:31.607Z,15.40
2019-05-22T13:21:03.078Z,14.00
2019-05-22T13:23:38.078Z,14.53
2019-05-22T13:26:07.978Z,13.27
2019-05-22T13:28:39.226Z,14.93
2019-05-22T13:31:10.138Z,12.60
2019-05-22T13:33:42.036Z,12.87
2019-05-22T13:36:13.033Z,14.23
2019-05-22T13:38:42.843Z,13.10
2019-05-22T13:41:12.623Z,10.83
2019-05-22T13:43:42.024Z,11.93
2019-05-22T13:46:11.148Z,11.43
2019-05-22T13:48:40.238Z,10.17
2019-05-22T13:51:11.646Z,10.67
2019-05-22T13:53:42.406Z,10.27
2019-05-22T13:56:13.237Z,9.67
2019-05-22T13:58:43.503Z,8.90
2019-05-22T14:01:12.816Z,9.27
2019-05-22T14:03:42.004Z,9.13
2019-05-22T14:06:12.036Z,9.50
2019-05-22T14:09:00.267Z,9.10
2019-05-22T14:11:29.298Z,9.70
2019-05-22T14:13:58.679Z,9.47
2019-05-22T14:16:28.688Z,9.17
2019-05-22T14:18:57.772Z,9.00
2019-05-22T14:21:27.122Z,11.80
2019-05-22T14:23:56.047Z,12.73
2019-05-22T14:26:25.150Z,12.77
2019-05-22T14:28:54.348Z,13.55
2019-05-22T14:31:23.346Z,11.97
2019-05-22T14:33:52.443Z,12.70
2019-05-22T14:36:21.694Z,12.33
2019-05-22T14:38:50.964Z,11.60
2019-05-22T14:41:20.451Z,10.43
2019-05-22T14:43:49.567Z,9.33
2019-05-22T14:46:19.097Z,8.67
2019-05-22T14:48:48.848Z,9.40
2019-05-22T14:51:20.024Z,8.40
2019-05-22T14:53:52.272Z,7.13
2019-05-22T14:56:22.126Z,6.57
2019-05-22T14:58:51.526Z,7.23
2019-05-22T15:01:21.741Z,6.78
2019-05-22T15:03:51.110Z,8.20
2019-05-22T15:06:20.743Z,6.77
2019-05-22T15:08:49.898Z,6.58
2019-05-22T15:11:19.717Z,6.95
2019-05-22T15:13:49.129Z,6.50
2019-05-22T15:16:18.240Z,7.17
2019-05-22T15:18:47.230Z,7.05
2019-05-22T15:21:18.174Z,8.20
2019-05-22T15:23:48.702Z,6.97
2019-05-22T15:26:18.378Z,6.47
2019-05-22T15:28:47.717Z,6.80
2019-05-22T15:31:17.228Z,7.62
2019-05-22T15:33:46.318Z,6.47
2019-05-22T15:36:19.118Z,6.90
2019-05-22T15:38:49.683Z,7.17
2019-05-22T15:41:19.601Z,7.33
2019-05-22T15:43:52.958Z,7.58
2019-05-22T15:46:21.622Z,7.35
2019-05-22T15:48:53.418Z,7.95
2019-05-22T15:51:27.898Z,7.65
2019-05-22T15:54:00.374Z,8.77
2019-05-22T15:56:31.686Z,9.67
2019-05-22T15:59:02.762Z,8.03
2019-05-22T16:01:35.363Z,7.50
2019-05-22T16:04:06.172Z,9.13
2019-05-22T16:06:35.768Z,8.13
2019-05-22T16:09:08.219Z,8.53
2019-05-22T16:11:37.514Z,8.57
2019-05-22T16:14:07.619Z,8.30
2019-05-22T16:16:37.335Z,7.63
2019-05-22T16:19:09.137Z,7.80
2019-05-22T16:21:42.025Z,7.37
2019-05-22T16:24:11.776Z,7.57
2019-05-22T16:26:42.338Z,7.43
2019-05-22T16:29:12.551Z,7.17
2019-05-22T16:31:43.527Z,7.47
2019-05-22T16:34:13.173Z,7.27
2019-05-22T16:36:44.703Z,6.53
2019-05-22T16:39:15.803Z,6.80
2019-05-22T16:41:44.886Z,7.37
2019-05-22T16:44:14.867Z,6.70
2019-05-22T16:46:44.968Z,6.57
2019-05-22T16:49:14.931Z,6.53
2019-05-22T16:51:45.470Z,6.53
2019-05-22T16:54:20.450Z,7.10
2019-05-22T16:56:47.398Z,6.90
2019-05-22T16:59:18.745Z,6.67
2019-05-22T17:01:58.629Z,6.50
2019-05-22T17:04:19.297Z,7.53
2019-05-22T17:06:49.011Z,6.60
2019-05-22T17:09:19.283Z,7.00
2019-05-22T17:11:49.290Z,7.00
2019-05-22T17:14:20.879Z,6.07
2019-05-22T17:16:51.461Z,7.60
2019-05-22T17:19:27.036Z,6.73
2019-05-22T17:21:52.484Z,7.33
2019-05-22T17:24:22.945Z,6.73
2019-05-22T17:26:53.531Z,6.33
2019-05-22T17:29:23.076Z,6.53
2019-05-22T17:31:52.370Z,7.77
2019-05-22T17:34:37.618Z,7.03
2019-05-22T17:37:13.755Z,8.13
2019-05-22T17:39:45.420Z,7.17
2019-05-22T17:42:21.248Z,6.87
2019-05-22T17:44:52.754Z,7.00
2019-05-22T17:47:24.730Z,10.80
2019-05-22T17:49:54.411Z,7.93
2019-05-22T17:52:24.418Z,7.67
2019-05-22T17:54:53.484Z,6.80
2019-05-22T17:57:24.048Z,8.13
2019-05-22T17:59:54.464Z,7.20
2019-05-22T18:02:26.142Z,8.37
2019-05-22T18:04:55.577Z,7.73
2019-05-22T18:07:25.339Z,7.73
2019-05-22T18:09:55.021Z,7.93
2019-05-22T18:12:24.599Z,7.83
2019-05-22T18:14:54.175Z,8.57
2019-05-22T18:17:24.052Z,8.67
2019-05-22T18:19:53.545Z,8.53
2019-05-22T18:22:22.471Z,8.27
2019-05-22T18:24:51.614Z,8.53
2019-05-22T18:27:20.857Z,8.27
2019-05-22T18:30:02.078Z,7.60
2019-05-22T18:32:34.061Z,8.43
2019-05-22T18:35:03.061Z,8.00
2019-05-22T18:37:31.986Z,8.47
2019-05-22T18:40:01.096Z,9.03
2019-05-22T18:42:30.318Z,7.77
2019-05-22T18:44:59.441Z,8.70
2019-05-22T18:47:28.460Z,7.40
2019-05-22T18:49:57.478Z,8.27
2019-05-22T18:52:40.034Z,8.13
2019-05-22T18:54:57.146Z,8.50
2019-05-22T18:57:26.128Z,8.03
2019-05-22T19:00:01.136Z,8.37
2019-05-22T19:02:26.494Z,8.60
2019-05-22T19:04:55.677Z,8.87
2019-05-22T19:07:25.075Z,8.53
2019-05-22T19:09:54.576Z,8.67
2019-05-22T19:12:23.921Z,7.87
2019-05-22T19:14:53.135Z,8.53
2019-05-22T19:17:22.606Z,9.40
2019-05-22T19:19:51.717Z,7.87
2019-05-22T19:22:21.433Z,9.43
2019-05-22T19:24:50.434Z,8.43
2019-05-22T19:27:19.610Z,9.43
2019-05-22T19:29:48.535Z,9.53
2019-05-22T19:32:17.802Z,8.90
2019-05-22T19:34:46.776Z,8.77
2019-05-22T19:37:16.533Z,8.60
2019-05-22T19:40:06.590Z,8.87
2019-05-22T19:42:35.910Z,10.67
2019-05-22T19:45:05.469Z,9.00
2019-05-22T19:47:35.998Z,9.93
2019-05-22T19:50:22.012Z,10.30
2019-05-22T19:52:42.144Z,11.10
2019-05-22T19:55:14.036Z,10.00
2019-05-22T19:57:44.078Z,10.23
2019-05-22T20:00:14.374Z,11.37
2019-05-22T20:02:43.609Z,11.23
2019-05-22T20:05:13.211Z,10.87
2019-05-22T20:07:42.716Z,10.93
2019-05-22T20:10:13.046Z,10.90
2019-05-22T20:12:43.830Z,9.83
2019-05-22T20:15:13.822Z,9.73
2019-05-22T20:17:43.331Z,9.97
2019-05-22T20:20:15.727Z,12.33
2019-05-22T20:22:45.745Z,12.60
2019-05-22T20:25:16.566Z,12.70
2019-05-22T20:27:46.258Z,14.03
2019-05-22T20:30:18.220Z,14.57
2019-05-22T20:32:47.526Z,19.03
2019-05-22T20:35:17.666Z,15.03
2019-05-22T20:37:48.367Z,16.50
2019-05-22T20:40:19.231Z,15.03
2019-05-22T20:42:48.567Z,15.27
2019-05-22T20:45:20.913Z,13.93
2019-05-22T20:47:56.194Z,14.53
2019-05-22T20:50:25.230Z,15.63
2019-05-22T20:52:55.014Z,15.50
2019-05-22T20:55:24.480Z,17.20
2019-05-22T20:57:53.979Z,16.77
2019-05-22T21:00:25.649Z,17.47
2019-05-22T21:03:02.415Z,18.53
2019-05-22T21:05:31.698Z,18.20
2019-05-22T21:08:06.996Z,19.23
2019-05-22T21:10:37.379Z,19.40
2019-05-22T21:13:08.452Z,18.57
2019-05-22T21:15:38.550Z,18.50
2019-05-22T21:18:08.123Z,19.27
2019-05-22T21:20:53.609Z,18.10
2019-05-22T21:23:12.410Z,17.50
2019-05-22T21:25:41.522Z,18.67
2019-05-22T21:28:10.591Z,17.77
2019-05-22T21:30:41.518Z,15.83
2019-05-22T21:33:11.116Z,16.57
2019-05-22T21:35:40.436Z,18.37
2019-05-22T21:38:09.354Z,19.67
2019-05-22T21:40:38.826Z,18.37
2019-05-22T21:43:07.767Z,20.93
2019-05-22T21:45:37.162Z,18.13
2019-05-22T21:48:07.520Z,19.53
2019-05-22T21:50:37.961Z,18.47
2019-05-22T21:53:11.520Z,19.60
2019-05-22T21:55:45.408Z,17.67
2019-05-22T21:58:13.494Z,17.27
2019-05-22T22:01:03.759Z,18.53
2019-05-22T22:03:38.499Z,18.63
2019-05-22T22:06:08.297Z,19.00
2019-05-22T22:08:37.838Z,21.60
2019-05-22T22:11:07.530Z,21.27
2019-05-22T22:13:38.058Z,18.77
2019-05-22T22:16:09.020Z,18.97
2019-05-22T22:18:39.947Z,20.87
2019-05-22T22:21:10.713Z,20.83
2019-05-22T22:23:39.635Z,18.80
2019-05-22T22:26:24.739Z,20.67
2019-05-22T22:28:40.795Z,20.27
2019-05-22T22:31:12.070Z,22.33
2019-05-22T22:33:44.653Z,21.00
2019-05-22T22:36:13.655Z,21.03
2019-05-22T22:38:43.572Z,22.13
2019-05-22T22:41:15.459Z,23.03
2019-05-22T22:43:48.311Z,22.73
2019-05-22T22:46:29.951Z,22.80
2019-05-22T22:49:01.737Z,21.50
2019-05-22T22:51:31.511Z,18.77
2019-05-22T22:54:01.082Z,20.83
2019-05-22T22:56:30.809Z,21.00
2019-05-22T22:59:00.474Z,21.30
2019-05-22T23:01:33.092Z,19.33
2019-05-22T23:04:05.261Z,20.70
2019-05-22T23:06:36.387Z,18.63
2019-05-22T23:09:10.179Z,18.03
2019-05-22T23:11:41.649Z,18.97
2019-05-22T23:14:11.290Z,19.67
2019-05-22T23:16:41.770Z,18.03
2019-05-22T23:19:33.701Z,16.33
2019-05-22T23:22:03.278Z,16.53
2019-05-22T23:24:32.730Z,18.60
2019-05-22T23:27:02.018Z,18.07
2019-05-22T23:29:32.709Z,19.60
2019-05-22T23:32:02.346Z,18.20
2019-05-22T23:34:32.030Z,19.37
2019-05-22T23:37:02.783Z,20.77
2019-05-22T23:39:33.299Z,18.30
2019-05-22T23:42:10.002Z,17.77
2019-05-22T23:44:39.775Z,18.83
2019-05-22T23:47:11.226Z,18.40
2019-05-22T23:49:41.328Z,18.17
2019-05-22T23:52:12.487Z,19.23
2019-05-22T23:54:41.956Z,19.27
2019-05-22T23:57:13.034Z,17.73
2019-05-22T23:59:45.746Z,18.63
